createdAt,value
2022-09-23T00:02:02.148Z,4.43
2022-09-23T00:04:29.380Z,4.28
2022-09-23T00:06:55.693Z,4.68
2022-09-23T00:09:22.093Z,4.60
2022-09-23T00:11:48.503Z,4.07
2022-09-23T00:14:14.869Z,3.17
2022-09-23T00:16:41.550Z,3.25
2022-09-23T00:19:07.958Z,2.60
2022-09-23T00:21:34.273Z,3.42
2022-09-23T00:24:00.910Z,3.85
2022-09-23T00:26:27.879Z,4.17
2022-09-23T00:28:54.336Z,4.40
2022-09-23T00:31:22.696Z,5.40
2022-09-23T00:33:53.095Z,5.00
2022-09-23T00:36:19.508Z,5.45
2022-09-23T00:38:46.859Z,6.13
2022-09-23T00:41:16.053Z,7.13
2022-09-23T00:43:53.553Z,7.85
2022-09-23T00:48:48.412Z,8.80
2022-09-23T00:51:17.862Z,8.30
2022-09-23T00:53:45.790Z,8.77
2022-09-23T00:56:13.406Z,8.60
2022-09-23T01:01:06.195Z,9.23
2022-09-23T01:03:32.731Z,9.55
2022-09-23T01:05:59.278Z,9.32
2022-09-23T01:08:27.036Z,8.93
2022-09-23T01:11:06.479Z,8.77
2022-09-23T01:13:55.946Z,8.40
2022-09-23T01:16:28.931Z,8.90
2022-09-23T01:19:23.375Z,8.77
2022-09-23T01:21:49.695Z,8.32
2022-09-23T01:24:37.784Z,8.57
2022-09-23T01:27:33.405Z,9.00
2022-09-23T01:30:18.761Z,9.00
2022-09-23T01:32:45.153Z,8.23
2022-09-23T01:35:31.517Z,9.70
2022-09-23T01:38:24.626Z,10.27
2022-09-23T01:40:59.901Z,8.27
2022-09-23T01:43:44.713Z,8.27
2022-09-23T01:46:14.911Z,9.13
2022-09-23T01:48:51.907Z,8.68
2022-09-23T01:51:25.257Z,8.40
2022-09-23T01:53:58.075Z,9.20
2022-09-23T01:56:27.361Z,9.23
2022-09-23T01:58:53.890Z,9.27
2022-09-23T02:01:23.349Z,8.68
2022-09-23T02:04:09.960Z,9.13
2022-09-23T02:06:39.023Z,8.48
2022-09-23T02:09:09.267Z,8.68
2022-09-23T02:11:36.764Z,8.52
2022-09-23T02:14:07.022Z,8.50
2022-09-23T02:16:33.374Z,8.43
2022-09-23T02:19:08.163Z,8.18
2022-09-23T02:21:36.187Z,8.32
2022-09-23T02:24:05.837Z,9.32
2022-09-23T02:26:38.098Z,9.15
2022-09-23T02:29:17.106Z,9.40
2022-09-23T02:31:57.974Z,8.00
2022-09-23T02:34:30.081Z,8.65
2022-09-23T02:37:07.825Z,8.80
2022-09-23T02:39:39.634Z,9.07
2022-09-23T02:42:07.674Z,7.93
2022-09-23T02:44:34.126Z,8.73
2022-09-23T02:47:00.628Z,8.27
2022-09-23T02:49:27.982Z,7.90
2022-09-23T02:51:54.602Z,8.45
2022-09-23T02:54:22.751Z,8.00
2022-09-23T02:56:49.582Z,8.75
2022-09-23T02:59:19.377Z,8.77
2022-09-23T03:01:48.502Z,8.05
2022-09-23T03:04:20.864Z,8.70
2022-09-23T03:06:50.245Z,7.85
2022-09-23T03:09:22.392Z,8.30
2022-09-23T03:11:53.031Z,7.85
2022-09-23T03:14:29.552Z,8.18
2022-09-23T03:16:59.133Z,7.70
2022-09-23T03:19:25.463Z,7.18
2022-09-23T03:21:57.765Z,7.53
2022-09-23T03:24:24.815Z,8.38
2022-09-23T03:26:52.507Z,7.50
2022-09-23T03:29:20.160Z,8.30
2022-09-23T03:34:24.356Z,7.70
2022-09-23T03:37:11.246Z,7.35
2022-09-23T03:39:43.102Z,7.78
2022-09-23T03:42:16.943Z,7.75
2022-09-23T03:44:47.664Z,8.70
2022-09-23T03:47:15.112Z,7.65
2022-09-23T03:49:44.217Z,7.50
2022-09-23T03:52:11.095Z,8.10
2022-09-23T03:54:37.408Z,8.33
2022-09-23T03:57:03.886Z,8.82
2022-09-23T03:59:30.758Z,7.97
2022-09-23T04:01:59.517Z,9.50
2022-09-23T04:04:27.412Z,8.48
2022-09-23T04:06:54.461Z,8.00
2022-09-23T04:09:21.075Z,9.02
2022-09-23T04:11:50.798Z,7.80
2022-09-23T04:14:17.778Z,9.43
2022-09-23T04:16:44.276Z,10.25
2022-09-23T04:19:11.722Z,8.85
2022-09-23T04:24:04.834Z,10.45
2022-09-23T04:26:31.722Z,10.05
2022-09-23T04:28:58.366Z,10.27
2022-09-23T04:31:24.873Z,9.82
2022-09-23T04:33:53.198Z,10.57
2022-09-23T04:36:19.611Z,10.80
2022-09-23T04:38:46.569Z,10.15
2022-09-23T04:41:13.271Z,10.50
2022-09-23T04:43:40.233Z,10.83
2022-09-23T04:46:07.410Z,10.40
2022-09-23T04:48:33.945Z,11.18
2022-09-23T04:51:08.057Z,10.38
2022-09-23T04:53:38.430Z,10.45
2022-09-23T04:56:06.082Z,10.45
2022-09-23T05:01:07.493Z,10.52
2022-09-23T05:03:35.204Z,10.30
2022-09-23T05:08:28.738Z,9.32
2022-09-23T05:10:58.973Z,9.75
2022-09-23T05:13:25.589Z,9.10
2022-09-23T05:15:58.754Z,9.13
2022-09-23T05:18:25.189Z,9.40
2022-09-23T05:20:55.400Z,9.27
2022-09-23T05:23:25.354Z,12.02
2022-09-23T05:25:59.083Z,9.75
2022-09-23T05:28:31.274Z,10.93
2022-09-23T05:31:05.301Z,9.85
2022-09-23T05:33:32.645Z,8.82
2022-09-23T05:35:59.027Z,8.70
2022-09-23T05:38:25.679Z,9.48
2022-09-23T05:40:58.585Z,9.48
2022-09-23T05:43:25.366Z,8.32
2022-09-23T05:45:52.198Z,7.83
2022-09-23T05:48:18.557Z,8.53
2022-09-23T05:50:51.398Z,7.82
2022-09-23T05:53:18.283Z,12.48
2022-09-23T05:55:45.544Z,10.77
2022-09-23T05:58:12.341Z,10.55
2022-09-23T06:00:40.108Z,11.77
2022-09-23T06:05:32.769Z,12.18
2022-09-23T06:07:59.335Z,14.90
2022-09-23T06:10:27.049Z,14.27
2022-09-23T06:15:19.673Z,17.67
2022-09-23T06:17:48.765Z,19.67
2022-09-23T06:20:15.163Z,21.67
2022-09-23T06:22:41.495Z,23.00
2022-09-23T06:25:08.043Z,26.40
2022-09-23T06:27:34.383Z,21.90
2022-09-23T06:30:00.730Z,22.25
2022-09-23T06:32:27.136Z,20.90
2022-09-23T06:34:53.454Z,19.38
2022-09-23T06:37:20.833Z,21.10
2022-09-23T06:39:47.309Z,20.00
2022-09-23T06:42:13.746Z,19.15
2022-09-23T06:44:40.082Z,21.27
2022-09-23T06:47:06.435Z,19.40
2022-09-23T06:49:33.709Z,17.65
2022-09-23T06:52:00.457Z,19.27
2022-09-23T06:54:30.722Z,19.40
2022-09-23T06:56:57.076Z,17.38
2022-09-23T06:59:24.955Z,17.60
2022-09-23T07:01:51.398Z,18.08
2022-09-23T07:04:17.839Z,17.58
2022-09-23T07:06:44.194Z,17.55
2022-09-23T07:09:11.037Z,16.80
2022-09-23T07:11:37.773Z,15.73
2022-09-23T07:14:04.143Z,17.47
2022-09-23T07:16:31.634Z,18.75
2022-09-23T07:21:24.357Z,15.18
2022-09-23T07:23:51.712Z,16.35
2022-09-23T07:26:19.010Z,15.85
2022-09-23T07:28:45.595Z,16.63
2022-09-23T07:31:13.845Z,14.32
2022-09-23T07:33:43.695Z,15.93
2022-09-23T07:36:12.254Z,13.93
2022-09-23T07:38:44.266Z,15.35
2022-09-23T07:41:13.236Z,14.63
2022-09-23T07:43:40.801Z,15.05
2022-09-23T07:48:35.945Z,12.32
2022-09-23T07:51:10.263Z,14.98
2022-09-23T07:53:37.254Z,14.50
2022-09-23T07:56:06.298Z,13.73
2022-09-23T07:58:33.588Z,13.65
2022-09-23T08:01:06.927Z,13.82
2022-09-23T08:03:33.535Z,14.98
2022-09-23T08:06:04.409Z,13.85
2022-09-23T08:08:30.946Z,12.60
2022-09-23T08:11:02.459Z,13.43
2022-09-23T08:13:28.814Z,11.65
2022-09-23T08:15:55.747Z,11.82
2022-09-23T08:18:22.166Z,12.05
2022-09-23T08:20:48.564Z,13.00
2022-09-23T08:23:15.727Z,10.95
2022-09-23T08:25:44.491Z,11.80
2022-09-23T08:28:16.021Z,12.10
2022-09-23T08:30:47.808Z,12.00
2022-09-23T08:33:14.247Z,11.07
2022-09-23T08:35:40.689Z,9.97
2022-09-23T08:38:07.920Z,9.32
2022-09-23T08:40:37.552Z,13.32
2022-09-23T08:43:06.890Z,10.55
2022-09-23T08:45:34.428Z,9.48
2022-09-23T08:48:01.886Z,10.95
2022-09-23T08:52:55.174Z,12.67
2022-09-23T08:55:24.354Z,10.50
2022-09-23T08:58:14.133Z,9.77
2022-09-23T09:00:40.774Z,9.52
2022-09-23T09:03:18.429Z,11.70
2022-09-23T09:05:53.709Z,9.13
2022-09-23T09:08:29.794Z,10.00
2022-09-23T09:10:58.145Z,9.93
2022-09-23T09:13:32.637Z,10.93
2022-09-23T09:16:11.499Z,8.23
2022-09-23T09:18:44.583Z,8.20
2022-09-23T09:21:14.548Z,8.45
2022-09-23T09:23:48.174Z,8.77
2022-09-23T09:26:22.546Z,7.68
2022-09-23T09:28:51.934Z,7.45
2022-09-23T09:31:22.445Z,8.40
2022-09-23T09:34:00.498Z,8.23
2022-09-23T09:36:32.166Z,6.00
2022-09-23T09:38:59.428Z,6.07
2022-09-23T09:41:27.366Z,6.05
2022-09-23T09:43:57.643Z,8.82
2022-09-23T09:46:29.333Z,7.45
2022-09-23T09:49:02.079Z,6.75
2022-09-23T09:51:29.330Z,6.55
2022-09-23T09:54:14.127Z,5.82
2022-09-23T09:56:42.063Z,6.20
2022-09-23T09:59:11.386Z,5.25
2022-09-23T10:01:37.840Z,6.15
2022-09-23T10:04:05.871Z,5.05
2022-09-23T10:06:35.885Z,5.28
2022-09-23T10:09:05.018Z,6.07
2022-09-23T10:11:32.087Z,5.32
2022-09-23T10:16:24.673Z,6.50
2022-09-23T10:18:51.366Z,5.60
2022-09-23T10:21:25.483Z,5.45
2022-09-23T10:23:55.613Z,4.80
2022-09-23T10:26:34.227Z,4.97
2022-09-23T10:29:18.860Z,4.53
2022-09-23T10:31:45.390Z,3.72
2022-09-23T10:34:20.766Z,3.75
2022-09-23T10:36:54.120Z,2.97
2022-09-23T10:39:39.166Z,4.20
2022-09-23T10:42:48.696Z,3.33
2022-09-23T10:45:39.748Z,3.65
2022-09-23T10:48:28.333Z,5.10
2022-09-23T10:50:55.490Z,3.58
2022-09-23T10:53:24.570Z,2.80
2022-09-23T10:56:04.658Z,2.95
2022-09-23T10:58:33.967Z,3.10
2022-09-23T11:01:05.405Z,3.70
2022-09-23T11:03:45.473Z,3.08
2022-09-23T11:06:22.171Z,3.60
2022-09-23T11:11:18.478Z,3.05
2022-09-23T11:13:44.822Z,2.90
2022-09-23T11:16:17.027Z,2.33
2022-09-23T11:18:43.345Z,3.03
2022-09-23T11:21:28.502Z,1.67
2022-09-23T11:24:16.169Z,1.58
2022-09-23T11:26:45.491Z,1.67
2022-09-23T11:29:21.778Z,1.85
2022-09-23T11:34:28.678Z,2.60
2022-09-23T11:37:04.689Z,2.88
2022-09-23T11:39:43.340Z,4.18
2022-09-23T11:42:15.574Z,2.20
2022-09-23T11:44:44.490Z,3.08
2022-09-23T11:47:14.167Z,2.35
2022-09-23T11:49:42.742Z,4.57
2022-09-23T11:52:14.560Z,3.42
2022-09-23T11:54:46.066Z,2.20
2022-09-23T11:57:19.432Z,3.75
2022-09-23T11:59:49.863Z,2.95
2022-09-23T12:02:28.235Z,3.55
2022-09-23T12:05:06.757Z,3.58
2022-09-23T12:10:09.296Z,2.47
2022-09-23T12:12:54.226Z,2.40
2022-09-23T12:15:34.350Z,2.25
2022-09-23T12:18:12.823Z,1.23
2022-09-23T12:20:59.345Z,2.28
2022-09-23T12:23:46.654Z,3.25
2022-09-23T12:26:17.699Z,2.40
2022-09-23T12:28:45.949Z,0.85
2022-09-23T12:31:14.846Z,3.00
2022-09-23T12:33:47.927Z,2.90
2022-09-23T12:36:14.270Z,1.75
2022-09-23T12:41:22.650Z,1.77
2022-09-23T12:44:15.286Z,1.38
2022-09-23T12:46:42.763Z,1.73
2022-09-23T12:49:24.891Z,2.67
2022-09-23T12:52:09.773Z,1.92
2022-09-23T12:54:36.703Z,1.35
2022-09-23T12:57:03.853Z,2.45
2022-09-23T12:59:55.682Z,2.40
2022-09-23T13:02:22.141Z,1.55
2022-09-23T13:05:21.560Z,3.53
2022-09-23T13:07:49.039Z,2.30
2022-09-23T13:10:18.158Z,3.63
2022-09-23T13:12:45.838Z,0.85
2022-09-23T13:15:33.082Z,5.50
2022-09-23T13:18:18.221Z,3.47
2022-09-23T13:20:46.815Z,1.93
2022-09-23T13:23:15.946Z,1.92
2022-09-23T13:25:43.155Z,2.70
2022-09-23T13:28:24.803Z,1.48
2022-09-23T13:30:52.268Z,2.65
2022-09-23T13:33:24.077Z,2.03
2022-09-23T13:35:51.297Z,2.00
2022-09-23T13:38:26.119Z,1.80
2022-09-23T13:40:58.677Z,0.82
2022-09-23T13:43:27.585Z,1.42
2022-09-23T13:45:55.194Z,2.50
2022-09-23T13:48:23.740Z,1.40
2022-09-23T13:50:51.039Z,3.45
2022-09-23T13:53:21.432Z,1.45
2022-09-23T13:55:52.238Z,1.95
2022-09-23T13:58:20.205Z,1.55
2022-09-23T14:00:47.347Z,2.60
2022-09-23T14:03:23.054Z,1.55
2022-09-23T14:05:49.709Z,1.80
2022-09-23T14:08:16.109Z,1.55
2022-09-23T14:13:32.232Z,1.88
2022-09-23T14:16:00.097Z,1.55
2022-09-23T14:18:29.386Z,2.35
2022-09-23T14:20:55.814Z,2.17
2022-09-23T14:23:22.174Z,1.52
2022-09-23T14:25:50.937Z,1.33
2022-09-23T14:28:18.388Z,1.48
2022-09-23T14:30:46.177Z,2.70
2022-09-23T14:33:17.101Z,1.67
2022-09-23T14:35:47.897Z,2.03
2022-09-23T14:38:46.982Z,0.93
2022-09-23T14:41:16.835Z,2.13
2022-09-23T14:43:47.486Z,1.02
2022-09-23T14:46:17.333Z,2.25
2022-09-23T14:48:43.769Z,2.35
2022-09-23T14:51:16.052Z,1.80
2022-09-23T14:53:45.640Z,1.70
2022-09-23T14:56:19.860Z,1.20
2022-09-23T14:58:54.141Z,1.70
2022-09-23T15:01:39.351Z,1.52
2022-09-23T15:04:30.838Z,3.33
2022-09-23T15:06:59.318Z,1.77
2022-09-23T15:09:26.638Z,1.20
2022-09-23T15:11:56.155Z,1.55
2022-09-23T15:14:36.527Z,1.17
2022-09-23T15:17:06.835Z,1.00
2022-09-23T15:19:34.726Z,1.80
2022-09-23T15:22:01.181Z,1.75
2022-09-23T15:24:33.644Z,1.20
2022-09-23T15:26:59.970Z,1.77
2022-09-23T15:29:26.994Z,1.05
2022-09-23T15:31:53.487Z,0.68
2022-09-23T15:34:20.875Z,2.47
2022-09-23T15:36:48.295Z,1.73
2022-09-23T15:39:14.697Z,1.20
2022-09-23T15:41:43.187Z,1.60
2022-09-23T15:44:13.615Z,1.35
2022-09-23T15:46:44.940Z,1.52
2022-09-23T15:49:17.900Z,1.85
2022-09-23T15:51:44.259Z,1.75
2022-09-23T15:54:12.438Z,1.02
2022-09-23T15:56:38.802Z,0.43
2022-09-23T15:59:05.251Z,1.55
2022-09-23T16:01:35.859Z,0.80
2022-09-23T16:04:03.925Z,0.73
2022-09-23T16:06:30.821Z,0.93
2022-09-23T16:11:27.480Z,1.30
2022-09-23T16:13:53.855Z,1.85
2022-09-23T16:16:23.108Z,0.95
2022-09-23T16:18:51.261Z,1.20
2022-09-23T16:21:18.739Z,2.17
2022-09-23T16:23:50.012Z,2.42
2022-09-23T16:26:17.703Z,1.42
2022-09-23T16:28:44.806Z,2.65
2022-09-23T16:31:17.384Z,2.05
2022-09-23T16:33:44.428Z,2.00
2022-09-23T16:36:21.100Z,1.92
2022-09-23T16:38:48.030Z,1.70
2022-09-23T16:41:14.678Z,2.15
2022-09-23T16:43:41.293Z,3.63
2022-09-23T16:46:10.211Z,1.50
2022-09-23T16:48:40.350Z,3.38
2022-09-23T16:51:07.529Z,1.80
2022-09-23T16:53:34.874Z,1.90
2022-09-23T16:58:28.772Z,2.20
2022-09-23T17:01:16.659Z,2.25
2022-09-23T17:03:43.097Z,4.10
2022-09-23T17:06:13.053Z,2.25
2022-09-23T17:08:42.939Z,2.25
2022-09-23T17:11:14.257Z,2.45
2022-09-23T17:13:42.313Z,2.55
2022-09-23T17:16:09.774Z,3.25
2022-09-23T17:18:36.131Z,3.95
2022-09-23T17:21:03.989Z,3.17
2022-09-23T17:23:31.616Z,3.08
2022-09-23T17:25:58.683Z,3.08
2022-09-23T17:28:25.102Z,2.50
2022-09-23T17:30:58.508Z,3.30
2022-09-23T17:33:28.416Z,2.75
2022-09-23T17:35:55.116Z,3.08
2022-09-23T17:38:28.878Z,3.08
2022-09-23T17:40:57.157Z,2.95
2022-09-23T17:43:25.294Z,2.47
2022-09-23T17:45:52.537Z,2.78
2022-09-23T17:48:20.185Z,2.75
2022-09-23T17:50:55.778Z,2.97
2022-09-23T17:53:22.367Z,3.15
2022-09-23T17:55:57.671Z,4.23
2022-09-23T17:58:25.040Z,3.55
2022-09-23T18:03:17.710Z,4.82
2022-09-23T18:05:44.140Z,3.83
2022-09-23T18:08:10.533Z,3.92
2022-09-23T18:10:36.906Z,4.30
2022-09-23T18:13:03.256Z,5.88
2022-09-23T18:15:29.601Z,4.25
2022-09-23T18:17:55.979Z,3.63
2022-09-23T18:20:22.309Z,3.90
2022-09-23T18:22:48.641Z,6.97
2022-09-23T18:25:37.551Z,3.80
2022-09-23T18:28:01.354Z,4.00
2022-09-23T18:30:29.561Z,7.32
2022-09-23T18:32:55.874Z,3.40
2022-09-23T18:35:22.227Z,3.70
2022-09-23T18:37:50.378Z,4.13
2022-09-23T18:40:19.315Z,5.10
2022-09-23T18:42:45.691Z,3.75
2022-09-23T18:45:12.066Z,3.50
2022-09-23T18:47:57.306Z,4.25
2022-09-23T18:50:43.647Z,4.93
2022-09-23T18:53:10.422Z,4.00
2022-09-23T18:55:36.925Z,5.43
2022-09-23T18:58:03.460Z,4.22
2022-09-23T19:00:30.068Z,10.23
2022-09-23T19:02:56.514Z,5.80
2022-09-23T19:05:22.920Z,4.75
2022-09-23T19:07:49.246Z,5.22
2022-09-23T19:10:15.647Z,5.63
2022-09-23T19:12:42.007Z,5.10
2022-09-23T19:15:09.226Z,5.03
2022-09-23T19:17:35.616Z,6.03
2022-09-23T19:20:02.029Z,4.57
2022-09-23T19:22:30.390Z,5.15
2022-09-23T19:24:56.744Z,5.13
2022-09-23T19:27:23.466Z,5.90
2022-09-23T19:29:50.235Z,5.37
2022-09-23T19:32:16.748Z,7.60
2022-09-23T19:34:44.232Z,5.13
2022-09-23T19:37:10.554Z,5.30
2022-09-23T19:39:37.534Z,4.70
2022-09-23T19:42:04.002Z,6.72
2022-09-23T19:44:30.353Z,5.05
2022-09-23T19:46:57.418Z,5.82
2022-09-23T19:49:24.607Z,6.65
2022-09-23T19:51:51.285Z,5.93
2022-09-23T19:54:21.027Z,6.53
2022-09-23T19:56:50.671Z,7.18
2022-09-23T19:59:18.991Z,7.15
2022-09-23T20:01:45.720Z,7.28
2022-09-23T20:04:12.198Z,8.55
2022-09-23T20:06:38.862Z,8.60
2022-09-23T20:09:05.449Z,8.43
2022-09-23T20:11:32.446Z,6.35
2022-09-23T20:14:01.517Z,6.43
2022-09-23T20:16:29.918Z,6.47
2022-09-23T20:18:56.615Z,6.10
2022-09-23T20:21:22.943Z,8.23
2022-09-23T20:23:49.286Z,6.50
2022-09-23T20:26:34.287Z,9.77
2022-09-23T20:29:01.426Z,6.95
2022-09-23T20:31:28.671Z,7.65
2022-09-23T20:33:58.211Z,6.55
2022-09-23T20:36:25.997Z,7.53
2022-09-23T20:38:55.980Z,7.07
2022-09-23T20:41:22.317Z,9.20
2022-09-23T20:43:52.390Z,9.20
2022-09-23T20:46:18.781Z,8.35
2022-09-23T20:48:46.377Z,8.38
2022-09-23T20:51:12.736Z,7.25
2022-09-23T20:53:39.080Z,9.48
2022-09-23T20:56:05.945Z,7.28
2022-09-23T20:58:36.454Z,8.85
2022-09-23T21:01:04.273Z,7.20
2022-09-23T21:03:31.735Z,6.45
2022-09-23T21:06:04.469Z,5.80
2022-09-23T21:08:31.517Z,7.18
2022-09-23T21:10:58.689Z,4.90
2022-09-23T21:13:25.082Z,4.75
2022-09-23T21:15:51.500Z,4.63
2022-09-23T21:18:22.294Z,4.22
2022-09-23T21:20:55.681Z,4.32
2022-09-23T21:23:26.308Z,6.10
2022-09-23T21:25:53.504Z,4.35
2022-09-23T21:28:19.898Z,5.95
2022-09-23T21:30:51.132Z,4.68
2022-09-23T21:33:18.245Z,3.00
2022-09-23T21:35:44.577Z,4.65
2022-09-23T21:38:10.984Z,2.63
2022-09-23T21:40:55.604Z,2.67
2022-09-23T21:43:23.480Z,3.00
2022-09-23T21:45:58.107Z,3.20
2022-09-23T21:48:24.438Z,4.28
2022-09-23T21:50:54.283Z,2.67
2022-09-23T21:53:21.175Z,3.85
2022-09-23T21:55:48.747Z,2.90
2022-09-23T21:58:15.145Z,3.63
2022-09-23T22:00:41.567Z,2.58
2022-09-23T22:03:08.226Z,2.42
2022-09-23T22:05:34.585Z,2.28
2022-09-23T22:08:00.998Z,3.33
2022-09-23T22:10:27.326Z,2.45
2022-09-23T22:12:53.666Z,2.65
2022-09-23T22:15:20.331Z,4.03
2022-09-23T22:17:48.071Z,1.83
2022-09-23T22:20:15.940Z,2.22
2022-09-23T22:22:42.258Z,2.50
2022-09-23T22:25:08.862Z,2.95
2022-09-23T22:27:55.150Z,2.45
2022-09-23T22:30:40.240Z,1.33
2022-09-23T22:33:06.989Z,2.60
2022-09-23T22:35:33.341Z,3.90
2022-09-23T22:38:01.046Z,1.83
2022-09-23T22:40:27.449Z,1.73
2022-09-23T22:42:54.201Z,3.20
2022-09-23T22:45:20.564Z,1.30
2022-09-23T22:47:46.968Z,0.80
2022-09-23T22:50:14.394Z,1.77
2022-09-23T22:52:41.138Z,1.83
2022-09-23T22:55:10.723Z,1.83
2022-09-23T22:57:37.173Z,2.28
2022-09-23T23:00:06.882Z,2.80
2022-09-23T23:02:33.332Z,1.67
2022-09-23T23:05:00.455Z,3.00
2022-09-23T23:07:26.843Z,1.23
2022-09-23T23:09:53.791Z,2.03
2022-09-23T23:12:20.856Z,2.97
2022-09-23T23:14:47.691Z,1.92
2022-09-23T23:17:14.074Z,2.13
2022-09-23T23:19:40.402Z,4.00
2022-09-23T23:22:06.791Z,2.45
2022-09-23T23:24:33.152Z,1.88
2022-09-23T23:26:59.521Z,2.08
2022-09-23T23:29:25.842Z,1.40
2022-09-23T23:31:52.472Z,3.28
2022-09-23T23:34:19.906Z,1.20
2022-09-23T23:36:47.167Z,1.45
2022-09-23T23:39:13.838Z,2.00
2022-09-23T23:41:41.587Z,1.80
2022-09-23T23:44:08.038Z,4.00
2022-09-23T23:46:37.273Z,3.60
2022-09-23T23:49:04.173Z,1.90
2022-09-23T23:51:30.509Z,1.50
2022-09-23T23:53:58.707Z,2.63
2022-09-23T23:56:25.477Z,2.88
2022-09-23T23:58:55.742Z,1.58
